createdAt,value
2022-08-23T00:00:47.550Z,997.82
2022-08-23T00:01:45.562Z,997.82
2022-08-23T00:02:45.636Z,997.85
2022-08-23T00:03:45.523Z,997.84
2022-08-23T00:04:55.818Z,997.84
2022-08-23T00:05:46.492Z,997.82
2022-08-23T00:06:45.518Z,997.81
2022-08-23T00:07:45.501Z,997.83
2022-08-23T00:08:48.749Z,997.85
2022-08-23T00:09:45.458Z,997.82
2022-08-23T00:10:46.450Z,997.82
2022-08-23T00:11:45.507Z,997.89
2022-08-23T00:12:45.444Z,997.80
2022-08-23T00:13:47.486Z,997.81
2022-08-23T00:14:45.513Z,997.81
2022-08-23T00:15:45.415Z,997.91
2022-08-23T00:16:45.439Z,997.91
2022-08-23T00:17:45.402Z,997.86
2022-08-23T00:18:48.981Z,997.88
2022-08-23T00:19:45.381Z,997.88
2022-08-23T00:20:45.380Z,997.91
2022-08-23T00:21:45.390Z,997.87
2022-08-23T00:22:45.359Z,997.91
2022-08-23T00:23:45.346Z,997.87
2022-08-23T00:24:45.336Z,997.85
2022-08-23T00:25:45.338Z,997.86
2022-08-23T00:26:45.355Z,997.80
2022-08-23T00:27:45.309Z,997.86
2022-08-23T00:28:45.299Z,997.84
2022-08-23T00:29:45.294Z,997.86
2022-08-23T00:30:45.278Z,997.85
2022-08-23T00:31:45.308Z,997.87
2022-08-23T00:32:45.274Z,997.84
2022-08-23T00:33:45.258Z,997.90
2022-08-23T00:34:45.244Z,997.84
2022-08-23T00:35:45.236Z,997.86
2022-08-23T00:36:45.264Z,997.86
2022-08-23T00:37:45.219Z,997.86
2022-08-23T00:38:46.212Z,997.84
2022-08-23T00:39:45.236Z,997.83
2022-08-23T00:40:45.219Z,997.79
2022-08-23T00:41:45.192Z,997.82
2022-08-23T00:42:45.222Z,997.77
2022-08-23T00:43:45.193Z,997.74
2022-08-23T00:44:45.174Z,997.76
2022-08-23T00:45:45.159Z,997.75
2022-08-23T00:46:45.160Z,997.80
2022-08-23T00:47:45.182Z,997.76
2022-08-23T00:48:45.137Z,997.75
2022-08-23T00:49:45.130Z,997.73
2022-08-23T00:50:45.121Z,997.77
2022-08-23T00:51:52.548Z,997.77
2022-08-23T00:52:46.127Z,997.76
2022-08-23T00:53:45.094Z,997.76
2022-08-23T00:54:45.088Z,997.76
2022-08-23T00:55:45.076Z,997.69
2022-08-23T00:56:45.069Z,997.76
2022-08-23T00:57:45.095Z,997.70
2022-08-23T00:58:45.051Z,997.77
2022-08-23T00:59:45.056Z,997.78
2022-08-23T01:01:07.881Z,997.74
2022-08-23T01:01:46.088Z,997.80
2022-08-23T01:02:45.052Z,997.68
2022-08-23T01:03:45.024Z,997.73
2022-08-23T01:04:45.002Z,997.70
2022-08-23T01:05:45.010Z,997.73
2022-08-23T01:06:44.983Z,997.87
2022-08-23T01:07:45.006Z,997.71
2022-08-23T01:08:44.968Z,997.73
2022-08-23T01:09:44.964Z,997.70
2022-08-23T01:10:44.952Z,997.77
2022-08-23T01:11:44.939Z,997.79
2022-08-23T01:12:44.965Z,997.81
2022-08-23T01:13:44.934Z,997.82
2022-08-23T01:14:44.914Z,997.80
2022-08-23T01:15:44.907Z,997.72
2022-08-23T01:16:44.906Z,997.85
2022-08-23T01:17:44.922Z,997.80
2022-08-23T01:18:44.881Z,997.83
2022-08-23T01:19:44.874Z,997.78
2022-08-23T01:20:44.874Z,997.79
2022-08-23T01:21:44.854Z,997.81
2022-08-23T01:22:44.880Z,997.77
2022-08-23T01:23:44.837Z,997.85
2022-08-23T01:24:59.609Z,997.78
2022-08-23T01:25:45.830Z,997.84
2022-08-23T01:26:44.824Z,997.83
2022-08-23T01:27:44.844Z,997.80
2022-08-23T01:28:45.829Z,997.81
2022-08-23T01:29:44.789Z,997.87
2022-08-23T01:30:44.786Z,997.80
2022-08-23T01:31:44.779Z,997.82
2022-08-23T01:32:44.805Z,997.83
2022-08-23T01:33:44.759Z,997.78
2022-08-23T01:34:51.663Z,997.86
2022-08-23T01:35:45.748Z,997.82
2022-08-23T01:36:44.736Z,997.86
2022-08-23T01:37:44.755Z,997.82
2022-08-23T01:38:44.715Z,997.79
2022-08-23T01:39:44.729Z,997.76
2022-08-23T01:40:45.706Z,997.78
2022-08-23T01:41:44.700Z,997.81
2022-08-23T01:42:44.710Z,997.77
2022-08-23T01:43:44.672Z,997.80
2022-08-23T01:44:44.683Z,997.82
2022-08-23T01:45:44.658Z,997.80
2022-08-23T01:46:44.653Z,997.84
2022-08-23T01:47:44.669Z,997.89
2022-08-23T01:48:44.634Z,997.89
2022-08-23T01:49:44.623Z,997.92
2022-08-23T01:50:44.618Z,997.94
2022-08-23T01:51:44.609Z,997.90
2022-08-23T01:52:46.751Z,997.90
2022-08-23T01:53:44.593Z,997.87
2022-08-23T01:54:44.598Z,997.94
2022-08-23T01:55:44.601Z,997.92
2022-08-23T01:56:44.575Z,997.88
2022-08-23T01:57:45.498Z,997.89
2022-08-23T01:58:44.587Z,997.84
2022-08-23T01:59:44.538Z,997.85
2022-08-23T02:00:44.554Z,997.87
2022-08-23T02:01:44.573Z,997.82
2022-08-23T02:02:44.514Z,997.84
2022-08-23T02:03:44.533Z,997.90
2022-08-23T02:04:44.494Z,997.90
2022-08-23T02:05:44.533Z,997.91
2022-08-23T02:06:44.476Z,997.88
2022-08-23T02:07:44.470Z,997.86
2022-08-23T02:08:44.492Z,997.89
2022-08-23T02:09:44.454Z,997.86
2022-08-23T02:10:44.448Z,997.91
2022-08-23T02:11:44.446Z,997.88
2022-08-23T02:12:44.431Z,997.97
2022-08-23T02:13:44.451Z,997.86
2022-08-23T02:14:44.418Z,997.89
2022-08-23T02:15:44.407Z,997.86
2022-08-23T02:16:56.528Z,997.90
2022-08-23T02:17:45.383Z,997.91
2022-08-23T02:18:44.435Z,997.90
2022-08-23T02:19:44.389Z,997.91
2022-08-23T02:20:44.363Z,997.90
2022-08-23T02:21:44.381Z,997.90
2022-08-23T02:22:44.349Z,997.93
2022-08-23T02:23:44.361Z,997.94
2022-08-23T02:24:44.329Z,997.97
2022-08-23T02:25:44.337Z,997.97
2022-08-23T02:26:46.418Z,998.02
2022-08-23T02:27:44.413Z,998.04
2022-08-23T02:28:44.333Z,998.01
2022-08-23T02:29:44.286Z,998.01
2022-08-23T02:30:44.294Z,998.00
2022-08-23T02:31:44.275Z,998.03
2022-08-23T02:32:44.252Z,998.03
2022-08-23T02:34:38.698Z,998.08
2022-08-23T02:34:44.290Z,998.04
2022-08-23T02:35:45.297Z,998.04
2022-08-23T02:36:44.322Z,998.08
2022-08-23T02:37:44.265Z,998.04
2022-08-23T02:38:44.293Z,998.07
2022-08-23T02:39:44.338Z,998.09
2022-08-23T02:40:44.257Z,998.03
2022-08-23T02:41:44.246Z,998.16
2022-08-23T02:42:44.224Z,998.10
2022-08-23T02:43:44.242Z,998.20
2022-08-23T02:44:44.206Z,998.16
2022-08-23T02:45:44.197Z,998.13
2022-08-23T02:46:44.191Z,998.12
2022-08-23T02:47:44.195Z,998.12
2022-08-23T02:48:44.226Z,998.10
2022-08-23T02:49:44.170Z,998.11
2022-08-23T02:50:44.153Z,998.20
2022-08-23T02:51:44.144Z,998.07
2022-08-23T02:52:44.130Z,998.13
2022-08-23T02:53:44.160Z,998.11
2022-08-23T02:54:44.123Z,998.15
2022-08-23T02:55:44.117Z,998.13
2022-08-23T02:56:44.108Z,998.12
2022-08-23T02:57:44.110Z,998.14
2022-08-23T02:58:44.117Z,998.16
2022-08-23T02:59:44.074Z,998.14
2022-08-23T03:00:44.069Z,998.20
2022-08-23T03:01:44.056Z,998.20
2022-08-23T03:02:44.098Z,998.19
2022-08-23T03:03:45.074Z,998.24
2022-08-23T03:04:44.043Z,998.22
2022-08-23T03:05:44.031Z,998.17
2022-08-23T03:06:44.028Z,998.16
2022-08-23T03:07:44.006Z,998.19
2022-08-23T03:08:44.042Z,998.18
2022-08-23T03:09:44.001Z,998.16
2022-08-23T03:10:43.987Z,998.16
2022-08-23T03:11:43.983Z,998.18
2022-08-23T03:12:43.976Z,998.14
2022-08-23T03:13:44.001Z,998.18
2022-08-23T03:14:43.953Z,998.21
2022-08-23T03:15:43.942Z,998.19
2022-08-23T03:16:43.933Z,998.16
2022-08-23T03:17:43.926Z,998.17
2022-08-23T03:18:43.963Z,998.18
2022-08-23T03:19:43.919Z,998.16
2022-08-23T03:20:43.907Z,998.17
2022-08-23T03:21:43.903Z,998.19
2022-08-23T03:22:48.442Z,998.20
2022-08-23T03:23:44.901Z,998.21
2022-08-23T03:24:43.868Z,998.29
2022-08-23T03:25:43.862Z,998.26
2022-08-23T03:26:43.856Z,998.27
2022-08-23T03:27:44.651Z,998.21
2022-08-23T03:28:43.882Z,998.29
2022-08-23T03:29:43.821Z,998.31
2022-08-23T03:30:44.801Z,998.24
2022-08-23T03:31:43.769Z,998.27
2022-08-23T03:32:49.085Z,998.26
2022-08-23T03:33:44.771Z,998.30
2022-08-23T03:34:43.729Z,998.32
2022-08-23T03:35:44.724Z,998.19
2022-08-23T03:36:43.715Z,998.23
2022-08-23T03:37:43.708Z,998.22
2022-08-23T03:38:43.700Z,998.26
2022-08-23T03:39:43.771Z,998.24
2022-08-23T03:40:43.680Z,998.24
2022-08-23T03:41:43.680Z,998.28
2022-08-23T03:42:43.668Z,998.27
2022-08-23T03:43:43.659Z,998.28
2022-08-23T03:44:43.680Z,998.31
2022-08-23T03:45:43.639Z,998.35
2022-08-23T03:46:43.636Z,998.33
2022-08-23T03:47:43.628Z,998.34
2022-08-23T03:48:43.622Z,998.36
2022-08-23T03:49:43.632Z,998.35
2022-08-23T03:50:43.597Z,998.36
2022-08-23T03:51:43.589Z,998.37
2022-08-23T03:52:43.579Z,998.38
2022-08-23T03:53:43.564Z,998.37
2022-08-23T03:54:43.603Z,998.37
2022-08-23T03:55:43.555Z,998.38
2022-08-23T03:56:43.554Z,998.42
2022-08-23T03:57:43.533Z,998.43
2022-08-23T03:58:43.539Z,998.43
2022-08-23T03:59:43.552Z,998.46
2022-08-23T04:00:43.506Z,998.43
2022-08-23T04:01:43.549Z,998.47
2022-08-23T04:02:43.505Z,998.46
2022-08-23T04:03:43.494Z,998.45
2022-08-23T04:04:43.514Z,998.57
2022-08-23T04:05:43.473Z,998.51
2022-08-23T04:06:43.464Z,998.52
2022-08-23T04:07:43.450Z,998.48
2022-08-23T04:08:44.448Z,998.52
2022-08-23T04:09:43.467Z,998.49
2022-08-23T04:10:43.425Z,998.52
2022-08-23T04:11:43.431Z,998.59
2022-08-23T04:12:43.412Z,998.50
2022-08-23T04:13:43.417Z,998.47
2022-08-23T04:14:43.433Z,998.53
2022-08-23T04:15:43.572Z,998.54
2022-08-23T04:16:44.392Z,998.58
2022-08-23T04:17:43.368Z,998.57
2022-08-23T04:18:43.417Z,998.55
2022-08-23T04:19:43.381Z,998.57
2022-08-23T04:20:43.342Z,998.54
2022-08-23T04:21:43.330Z,998.57
2022-08-23T04:22:43.335Z,998.61
2022-08-23T04:23:43.322Z,998.54
2022-08-23T04:24:43.339Z,998.62
2022-08-23T04:25:43.303Z,998.58
2022-08-23T04:26:43.516Z,998.60
2022-08-23T04:27:43.286Z,998.56
2022-08-23T04:28:43.270Z,998.54
2022-08-23T04:29:43.290Z,998.60
2022-08-23T04:30:44.255Z,998.59
2022-08-23T04:31:43.255Z,998.65
2022-08-23T04:32:43.241Z,998.70
2022-08-23T04:33:43.239Z,998.65
2022-08-23T04:34:45.665Z,998.64
2022-08-23T04:35:44.222Z,998.65
2022-08-23T04:36:50.050Z,998.56
2022-08-23T04:37:44.206Z,998.58
2022-08-23T04:38:43.188Z,998.57
2022-08-23T04:39:43.388Z,998.59
2022-08-23T04:40:44.169Z,998.60
2022-08-23T04:41:43.167Z,998.56
2022-08-23T04:42:43.164Z,998.57
2022-08-23T04:43:43.148Z,998.59
2022-08-23T04:44:43.171Z,998.58
2022-08-23T04:45:43.140Z,998.62
2022-08-23T04:46:43.124Z,998.68
2022-08-23T04:47:43.123Z,998.61
2022-08-23T04:48:43.106Z,998.67
2022-08-23T04:49:43.128Z,998.65
2022-08-23T04:50:43.090Z,998.72
2022-08-23T04:51:43.079Z,998.69
2022-08-23T04:52:44.081Z,998.70
2022-08-23T04:53:43.065Z,998.75
2022-08-23T04:54:43.078Z,998.67
2022-08-23T04:55:43.054Z,998.72
2022-08-23T04:56:43.035Z,998.72
2022-08-23T04:57:43.026Z,998.69
2022-08-23T04:58:43.025Z,998.69
2022-08-23T04:59:43.049Z,998.73
2022-08-23T05:00:43.047Z,998.71
2022-08-23T05:01:43.017Z,998.72
2022-08-23T05:02:43.388Z,998.72
2022-08-23T05:03:42.975Z,998.69
2022-08-23T05:04:43.014Z,998.77
2022-08-23T05:05:42.975Z,998.79
2022-08-23T05:06:42.951Z,998.73
2022-08-23T05:07:43.245Z,998.81
2022-08-23T05:08:43.951Z,998.77
2022-08-23T05:09:42.933Z,998.77
2022-08-23T05:10:42.954Z,998.77
2022-08-23T05:11:42.921Z,998.74
2022-08-23T05:12:42.905Z,998.68
2022-08-23T05:13:42.896Z,998.71
2022-08-23T05:14:44.338Z,998.73
2022-08-23T05:15:43.906Z,998.75
2022-08-23T05:16:42.869Z,998.77
2022-08-23T05:17:42.862Z,998.79
2022-08-23T05:18:42.858Z,998.76
2022-08-23T05:19:44.327Z,998.74
2022-08-23T05:20:42.874Z,998.81
2022-08-23T05:21:42.836Z,998.77
2022-08-23T05:22:42.827Z,998.74
2022-08-23T05:23:42.812Z,998.79
2022-08-23T05:24:42.816Z,998.86
2022-08-23T05:25:42.839Z,998.85
2022-08-23T05:26:42.804Z,998.85
2022-08-23T05:27:42.801Z,998.86
2022-08-23T05:28:42.778Z,998.86
2022-08-23T05:29:42.765Z,998.88
2022-08-23T05:30:42.788Z,998.85
2022-08-23T05:31:43.763Z,998.79
2022-08-23T05:32:42.735Z,998.85
2022-08-23T05:33:42.732Z,998.83
2022-08-23T05:34:42.722Z,998.86
2022-08-23T05:35:42.737Z,998.83
2022-08-23T05:36:48.303Z,998.88
2022-08-23T05:37:43.698Z,998.80
2022-08-23T05:38:42.691Z,998.85
2022-08-23T05:39:42.711Z,998.81
2022-08-23T05:40:42.712Z,998.87
2022-08-23T05:41:42.669Z,998.85
2022-08-23T05:42:42.661Z,998.86
2022-08-23T05:43:42.647Z,998.86
2022-08-23T05:44:42.636Z,998.89
2022-08-23T05:45:42.660Z,998.86
2022-08-23T05:46:42.922Z,998.89
2022-08-23T05:47:42.620Z,998.92
2022-08-23T05:48:42.611Z,998.92
2022-08-23T05:49:42.599Z,998.92
2022-08-23T05:50:42.625Z,998.89
2022-08-23T05:51:42.588Z,999.01
2022-08-23T05:52:42.577Z,998.91
2022-08-23T05:53:42.565Z,998.87
2022-08-23T05:54:42.560Z,998.94
2022-08-23T05:55:42.585Z,998.88
2022-08-23T05:56:42.551Z,998.89
2022-08-23T05:57:42.532Z,998.88
2022-08-23T05:58:42.526Z,998.98
2022-08-23T05:59:42.516Z,998.89
2022-08-23T06:00:42.590Z,998.99
2022-08-23T06:01:42.510Z,998.98
2022-08-23T06:02:42.491Z,998.97
2022-08-23T06:03:42.531Z,999.00
2022-08-23T06:04:42.475Z,998.90
2022-08-23T06:05:42.487Z,998.98
2022-08-23T06:06:42.451Z,998.87
2022-08-23T06:07:42.447Z,998.88
2022-08-23T06:08:46.347Z,998.90
2022-08-23T06:09:42.428Z,998.88
2022-08-23T06:10:42.642Z,998.87
2022-08-23T06:11:43.409Z,998.90
2022-08-23T06:12:42.396Z,998.89
2022-08-23T06:13:43.437Z,998.91
2022-08-23T06:14:42.392Z,998.94
2022-08-23T06:15:42.403Z,998.87
2022-08-23T06:16:42.368Z,998.90
2022-08-23T06:17:42.367Z,998.95
2022-08-23T06:18:42.351Z,998.96
2022-08-23T06:19:42.337Z,998.99
2022-08-23T06:20:42.458Z,998.97
2022-08-23T06:21:42.329Z,998.95
2022-08-23T06:22:42.338Z,998.97
2022-08-23T06:23:42.307Z,998.98
2022-08-23T06:24:42.307Z,998.96
2022-08-23T06:25:43.155Z,998.92
2022-08-23T06:26:42.284Z,998.87
2022-08-23T06:27:42.288Z,998.91
2022-08-23T06:28:51.132Z,998.81
2022-08-23T06:29:43.258Z,998.84
2022-08-23T06:30:42.363Z,998.83
2022-08-23T06:31:42.242Z,998.88
2022-08-23T06:32:42.297Z,998.79
2022-08-23T06:33:42.297Z,998.87
2022-08-23T06:34:43.213Z,998.82
2022-08-23T06:35:42.240Z,998.79
2022-08-23T06:36:42.198Z,998.76
2022-08-23T06:37:42.198Z,998.72
2022-08-23T06:38:42.177Z,998.68
2022-08-23T06:39:42.251Z,998.74
2022-08-23T06:40:42.173Z,998.76
2022-08-23T06:41:42.187Z,998.76
2022-08-23T06:42:42.148Z,998.74
2022-08-23T06:43:42.145Z,998.71
2022-08-23T06:44:42.145Z,998.84
2022-08-23T06:45:42.151Z,998.69
2022-08-23T06:46:43.155Z,998.71
2022-08-23T06:47:42.109Z,998.77
2022-08-23T06:48:42.102Z,998.77
2022-08-23T06:49:42.099Z,998.76
2022-08-23T06:50:43.110Z,998.86
2022-08-23T06:51:42.085Z,998.87
2022-08-23T06:52:42.068Z,998.88
2022-08-23T06:53:42.062Z,998.90
2022-08-23T06:54:42.047Z,998.85
2022-08-23T06:55:42.098Z,998.84
2022-08-23T06:56:42.033Z,998.85
2022-08-23T06:57:42.023Z,998.91
2022-08-23T06:58:42.020Z,998.90
2022-08-23T06:59:42.009Z,998.88
2022-08-23T07:00:42.082Z,998.88
2022-08-23T07:01:46.579Z,998.92
2022-08-23T07:02:44.013Z,998.86
2022-08-23T07:03:43.019Z,998.87
2022-08-23T07:04:41.975Z,998.90
2022-08-23T07:05:42.027Z,998.89
2022-08-23T07:06:41.989Z,998.91
2022-08-23T07:07:44.295Z,998.89
2022-08-23T07:08:41.949Z,998.94
2022-08-23T07:09:41.952Z,998.94
2022-08-23T07:10:41.975Z,998.95
2022-08-23T07:11:41.959Z,998.90
2022-08-23T07:12:41.935Z,999.01
2022-08-23T07:13:48.414Z,999.05
2022-08-23T07:14:41.898Z,999.03
2022-08-23T07:15:41.898Z,998.95
2022-08-23T07:16:41.914Z,998.96
2022-08-23T07:17:41.877Z,999.00
2022-08-23T07:18:41.875Z,998.98
2022-08-23T07:19:41.863Z,999.00
2022-08-23T07:20:41.862Z,998.97
2022-08-23T07:21:41.880Z,998.98
2022-08-23T07:22:41.841Z,998.99
2022-08-23T07:23:44.866Z,998.98
2022-08-23T07:24:42.832Z,998.97
2022-08-23T07:25:41.813Z,999.00
2022-08-23T07:26:41.837Z,998.93
2022-08-23T07:27:41.803Z,999.01
2022-08-23T07:28:41.790Z,998.94
2022-08-23T07:29:41.780Z,998.98
2022-08-23T07:30:45.117Z,998.90
2022-08-23T07:31:42.843Z,998.99
2022-08-23T07:32:41.759Z,998.93
2022-08-23T07:33:41.756Z,998.85
2022-08-23T07:34:41.747Z,998.87
2022-08-23T07:35:41.738Z,998.85
2022-08-23T07:36:41.771Z,998.87
2022-08-23T07:37:41.723Z,998.84
2022-08-23T07:38:42.754Z,998.90
2022-08-23T07:39:41.726Z,998.88
2022-08-23T07:40:41.762Z,998.90
2022-08-23T07:41:41.730Z,998.87
2022-08-23T07:42:41.678Z,998.83
2022-08-23T07:43:41.670Z,998.83
2022-08-23T07:44:41.685Z,998.87
2022-08-23T07:45:41.658Z,998.85
2022-08-23T07:46:41.763Z,998.88
2022-08-23T07:47:45.428Z,998.84
2022-08-23T07:48:53.897Z,998.84
2022-08-23T07:49:43.632Z,998.89
2022-08-23T07:50:54.741Z,998.86
2022-08-23T07:51:42.639Z,998.85
2022-08-23T07:52:41.616Z,998.86
2022-08-23T07:53:44.210Z,998.85
2022-08-23T07:54:48.275Z,998.84
2022-08-23T07:55:42.588Z,998.84
2022-08-23T07:56:41.608Z,998.86
2022-08-23T07:57:41.571Z,998.94
2022-08-23T07:58:41.563Z,998.84
2022-08-23T07:59:41.560Z,998.84
2022-08-23T08:00:41.561Z,998.84
2022-08-23T08:01:41.612Z,998.75
2022-08-23T08:02:41.599Z,998.82
2022-08-23T08:03:41.537Z,998.81
2022-08-23T08:04:41.520Z,998.79
2022-08-23T08:05:41.517Z,998.84
2022-08-23T08:06:41.559Z,998.82
2022-08-23T08:07:41.520Z,998.82
2022-08-23T08:08:41.502Z,998.83
2022-08-23T08:09:41.495Z,998.90
2022-08-23T08:10:41.482Z,998.78
2022-08-23T08:11:41.509Z,998.76
2022-08-23T08:12:41.488Z,998.79
2022-08-23T08:13:41.484Z,998.75
2022-08-23T08:14:41.474Z,998.75
2022-08-23T08:15:41.480Z,998.79
2022-08-23T08:16:41.439Z,998.72
2022-08-23T08:17:41.464Z,998.73
2022-08-23T08:18:41.424Z,998.84
2022-08-23T08:19:41.413Z,998.81
2022-08-23T08:20:41.410Z,998.76
2022-08-23T08:21:42.022Z,998.80
2022-08-23T08:22:45.418Z,998.73
2022-08-23T08:23:43.383Z,998.72
2022-08-23T08:24:41.380Z,998.80
2022-08-23T08:25:41.370Z,998.82
2022-08-23T08:26:41.362Z,998.92
2022-08-23T08:27:41.385Z,998.90
2022-08-23T08:28:41.350Z,998.86
2022-08-23T08:29:41.347Z,998.89
2022-08-23T08:30:41.348Z,998.90
2022-08-23T08:31:41.387Z,998.83
2022-08-23T08:32:47.209Z,998.73
2022-08-23T08:33:43.325Z,998.79
2022-08-23T08:34:41.336Z,998.81
2022-08-23T08:35:41.309Z,998.80
2022-08-23T08:36:41.309Z,998.78
2022-08-23T08:37:41.323Z,998.73
2022-08-23T08:38:47.986Z,998.75
2022-08-23T08:39:42.369Z,998.81
2022-08-23T08:40:41.265Z,998.74
2022-08-23T08:41:41.258Z,998.73
2022-08-23T08:42:41.286Z,998.65
2022-08-23T08:43:41.235Z,998.74
2022-08-23T08:44:41.292Z,998.65
2022-08-23T08:45:41.242Z,998.71
2022-08-23T08:46:42.285Z,998.68
2022-08-23T08:47:41.249Z,998.60
2022-08-23T08:48:41.214Z,998.65
2022-08-23T08:49:41.207Z,998.66
2022-08-23T08:50:41.199Z,998.62
2022-08-23T08:51:41.202Z,998.65
2022-08-23T08:52:41.230Z,998.67
2022-08-23T08:53:41.186Z,998.71
2022-08-23T08:54:43.889Z,998.68
2022-08-23T08:55:42.164Z,998.66
2022-08-23T08:56:41.158Z,998.75
2022-08-23T08:57:41.184Z,998.67
2022-08-23T08:58:41.140Z,998.64
2022-08-23T08:59:41.148Z,998.64
2022-08-23T09:00:41.125Z,998.58
2022-08-23T09:01:41.158Z,998.66
2022-08-23T09:02:41.204Z,998.62
2022-08-23T09:03:43.101Z,998.60
2022-08-23T09:04:42.107Z,998.56
2022-08-23T09:05:41.113Z,998.60
2022-08-23T09:06:41.096Z,998.58
2022-08-23T09:07:41.115Z,998.57
2022-08-23T09:08:41.078Z,998.57
2022-08-23T09:09:41.081Z,998.52
2022-08-23T09:10:41.065Z,998.47
2022-08-23T09:11:41.080Z,998.46
2022-08-23T09:12:41.084Z,998.42
2022-08-23T09:13:45.464Z,998.37
2022-08-23T09:14:43.042Z,998.43
2022-08-23T09:15:41.093Z,998.37
2022-08-23T09:16:41.189Z,998.42
2022-08-23T09:17:41.052Z,998.38
2022-08-23T09:18:41.031Z,998.39
2022-08-23T09:19:41.041Z,998.27
2022-08-23T09:20:41.004Z,998.33
2022-08-23T09:21:41.019Z,998.37
2022-08-23T09:22:41.517Z,998.31
2022-08-23T09:23:40.993Z,998.34
2022-08-23T09:24:40.977Z,998.33
2022-08-23T09:25:58.802Z,998.36
2022-08-23T09:26:42.066Z,998.36
2022-08-23T09:27:40.994Z,998.30
2022-08-23T09:28:40.953Z,998.27
2022-08-23T09:29:47.881Z,998.29
2022-08-23T09:30:41.947Z,998.28
2022-08-23T09:31:41.009Z,998.26
2022-08-23T09:32:40.962Z,998.29
2022-08-23T09:33:40.919Z,998.21
2022-08-23T09:34:40.908Z,998.22
2022-08-23T09:35:40.896Z,998.25
2022-08-23T09:36:40.906Z,998.23
2022-08-23T09:37:40.909Z,998.22
2022-08-23T09:38:43.357Z,998.24
2022-08-23T09:39:41.934Z,998.16
2022-08-23T09:40:41.405Z,998.19
2022-08-23T09:41:40.869Z,998.18
2022-08-23T09:42:40.876Z,998.13
2022-08-23T09:43:40.886Z,998.16
2022-08-23T09:44:41.196Z,998.20
2022-08-23T09:45:40.841Z,998.13
2022-08-23T09:46:40.901Z,998.15
2022-08-23T09:47:44.732Z,998.10
2022-08-23T09:48:40.862Z,998.07
2022-08-23T09:49:40.817Z,998.09
2022-08-23T09:50:40.836Z,998.13
2022-08-23T09:51:40.840Z,998.10
2022-08-23T09:52:40.789Z,998.06
2022-08-23T09:53:41.147Z,998.06
2022-08-23T09:54:44.219Z,998.10
2022-08-23T09:55:41.767Z,998.01
2022-08-23T09:56:40.765Z,998.01
2022-08-23T09:57:40.760Z,998.06
2022-08-23T09:58:40.781Z,998.01
2022-08-23T09:59:40.746Z,998.04
2022-08-23T10:00:40.739Z,998.06
2022-08-23T10:01:40.784Z,998.12
2022-08-23T10:02:40.726Z,998.03
2022-08-23T10:03:40.749Z,998.12
2022-08-23T10:04:40.788Z,998.04
2022-08-23T10:05:40.713Z,998.06
2022-08-23T10:06:40.708Z,998.04
2022-08-23T10:07:42.968Z,998.05
2022-08-23T10:08:43.229Z,998.01
2022-08-23T10:09:41.681Z,998.01
2022-08-23T10:10:40.680Z,997.94
2022-08-23T10:11:40.672Z,997.90
2022-08-23T10:12:40.679Z,997.95
2022-08-23T10:13:40.703Z,998.01
2022-08-23T10:14:40.670Z,997.97
2022-08-23T10:15:40.684Z,997.94
2022-08-23T10:16:40.635Z,998.00
2022-08-23T10:17:40.632Z,997.94
2022-08-23T10:18:40.670Z,997.93
2022-08-23T10:19:40.617Z,997.95
2022-08-23T10:20:40.615Z,997.95
2022-08-23T10:21:40.603Z,997.91
2022-08-23T10:22:40.594Z,997.90
2022-08-23T10:23:40.624Z,997.92
2022-08-23T10:24:40.587Z,997.94
2022-08-23T10:25:40.580Z,997.94
2022-08-23T10:26:40.574Z,997.93
2022-08-23T10:27:40.565Z,997.84
2022-08-23T10:28:40.599Z,997.92
2022-08-23T10:29:40.550Z,997.88
2022-08-23T10:30:40.563Z,997.92
2022-08-23T10:31:40.545Z,997.85
2022-08-23T10:32:40.542Z,997.84
2022-08-23T10:33:40.527Z,997.82
2022-08-23T10:34:41.560Z,997.83
2022-08-23T10:35:40.515Z,997.87
2022-08-23T10:36:40.509Z,997.87
2022-08-23T10:37:40.510Z,997.75
2022-08-23T10:38:40.501Z,997.81
2022-08-23T10:39:40.548Z,997.86
2022-08-23T10:40:40.489Z,997.86
2022-08-23T10:41:40.485Z,997.82
2022-08-23T10:42:40.478Z,997.81
2022-08-23T10:43:40.461Z,997.75
2022-08-23T10:44:40.487Z,997.75
2022-08-23T10:45:40.448Z,997.74
2022-08-23T10:46:40.470Z,997.72
2022-08-23T10:47:40.437Z,997.81
2022-08-23T10:48:40.430Z,997.75
2022-08-23T10:49:40.454Z,997.76
2022-08-23T10:50:40.423Z,997.70
2022-08-23T10:51:42.107Z,997.71
2022-08-23T10:52:40.403Z,997.73
2022-08-23T10:53:40.394Z,997.71
2022-08-23T10:54:40.429Z,997.71
2022-08-23T10:55:40.395Z,997.63
2022-08-23T10:56:44.798Z,997.68
2022-08-23T10:57:42.365Z,997.59
2022-08-23T10:58:40.356Z,997.65
2022-08-23T10:59:40.410Z,997.65
2022-08-23T11:00:40.352Z,997.65
2022-08-23T11:01:40.363Z,997.55
2022-08-23T11:02:40.359Z,997.63
2022-08-23T11:03:40.324Z,997.68
2022-08-23T11:04:40.353Z,997.62
2022-08-23T11:05:40.315Z,997.67
2022-08-23T11:06:40.306Z,997.59
2022-08-23T11:07:40.304Z,997.60
2022-08-23T11:08:42.402Z,997.68
2022-08-23T11:09:41.331Z,997.66
2022-08-23T11:10:40.292Z,997.62
2022-08-23T11:13:05.869Z,997.54
2022-08-23T11:14:05.883Z,997.60
2022-08-23T11:15:05.909Z,997.55
2022-08-23T11:16:05.957Z,997.51
2022-08-23T11:17:05.866Z,997.54
2022-08-23T11:18:05.864Z,997.57
2022-08-23T11:19:05.856Z,997.51
2022-08-23T11:20:07.027Z,997.50
2022-08-23T11:21:06.983Z,997.48
2022-08-23T11:22:06.990Z,997.49
2022-08-23T11:23:06.977Z,997.47
2022-08-23T11:24:06.971Z,997.50
2022-08-23T11:25:06.992Z,997.45
2022-08-23T11:26:06.953Z,997.50
2022-08-23T11:27:07.501Z,997.53
2022-08-23T11:28:06.948Z,997.52
2022-08-23T11:29:06.940Z,997.51
2022-08-23T11:30:06.952Z,997.47
2022-08-23T11:31:06.968Z,997.46
2022-08-23T11:32:06.926Z,997.45
2022-08-23T11:33:06.918Z,997.46
2022-08-23T11:34:06.898Z,997.46
2022-08-23T11:35:06.926Z,997.48
2022-08-23T11:36:06.899Z,997.44
2022-08-23T11:37:06.885Z,997.43
2022-08-23T11:38:07.047Z,997.47
2022-08-23T11:39:06.874Z,997.38
2022-08-23T11:40:06.932Z,997.37
2022-08-23T11:41:09.654Z,997.41
2022-08-23T11:42:06.850Z,997.36
2022-08-23T11:43:06.856Z,997.42
2022-08-23T11:44:06.840Z,997.36
2022-08-23T11:45:06.865Z,997.41
2022-08-23T11:46:06.873Z,997.34
2022-08-23T11:47:06.865Z,997.35
2022-08-23T11:48:06.812Z,997.36
2022-08-23T11:49:06.819Z,997.47
2022-08-23T11:50:06.840Z,997.42
2022-08-23T11:51:06.797Z,997.42
2022-08-23T11:52:06.796Z,997.45
2022-08-23T11:53:06.792Z,997.41
2022-08-23T11:54:06.775Z,997.37
2022-08-23T11:55:06.802Z,997.34
2022-08-23T11:56:06.769Z,997.40
2022-08-23T11:57:06.759Z,997.36
2022-08-23T11:58:06.748Z,997.31
2022-08-23T11:59:08.837Z,997.31
2022-08-23T12:00:06.850Z,997.35
2022-08-23T12:01:06.746Z,997.30
2022-08-23T12:02:06.764Z,997.30
2022-08-23T12:03:06.804Z,997.28
2022-08-23T12:04:06.862Z,997.27
2022-08-23T12:05:06.983Z,997.33
2022-08-23T12:06:06.710Z,997.32
2022-08-23T12:07:06.697Z,997.27
2022-08-23T12:08:06.685Z,997.28
2022-08-23T12:09:06.688Z,997.32
2022-08-23T12:10:06.678Z,997.24
2022-08-23T12:11:06.727Z,997.32
2022-08-23T12:12:06.742Z,997.31
2022-08-23T12:13:08.724Z,997.34
2022-08-23T12:14:06.647Z,997.34
2022-08-23T12:15:06.644Z,997.34
2022-08-23T12:16:06.762Z,997.30
2022-08-23T12:17:07.631Z,997.36
2022-08-23T12:18:06.640Z,997.28
2022-08-23T12:19:06.616Z,997.24
2022-08-23T12:20:06.613Z,997.24
2022-08-23T12:21:07.642Z,997.28
2022-08-23T12:22:06.602Z,997.30
2022-08-23T12:23:06.594Z,997.32
2022-08-23T12:24:06.597Z,997.24
2022-08-23T12:25:06.583Z,997.26
2022-08-23T12:26:06.610Z,997.26
2022-08-23T12:27:06.567Z,997.20
2022-08-23T12:28:06.589Z,997.22
2022-08-23T12:29:06.551Z,997.26
2022-08-23T12:30:06.579Z,997.21